createdAt,value
2018-12-18T00:01:07.186Z,6.40
2018-12-18T00:03:42.456Z,6.40
2018-12-18T00:06:12.120Z,6.40
2018-12-18T00:08:42.016Z,6.40
2018-12-18T00:11:11.973Z,6.40
2018-12-18T00:13:41.853Z,6.40
2018-12-18T00:16:11.787Z,6.40
2018-12-18T00:18:41.614Z,6.40
2018-12-18T00:21:11.366Z,6.40
2018-12-18T00:23:40.902Z,6.40
2018-12-18T00:26:10.746Z,6.40
2018-12-18T00:28:41.077Z,6.50
2018-12-18T00:31:10.681Z,6.40
2018-12-18T00:33:45.906Z,6.50
2018-12-18T00:36:12.460Z,6.50
2018-12-18T00:38:41.862Z,6.50
2018-12-18T00:41:11.638Z,6.40
2018-12-18T00:43:41.385Z,6.40
2018-12-18T00:46:11.145Z,6.40
2018-12-18T00:48:40.787Z,6.50
2018-12-18T00:51:10.063Z,6.50
2018-12-18T00:53:39.489Z,6.50
2018-12-18T00:56:09.094Z,6.40
2018-12-18T00:58:38.728Z,6.30
2018-12-18T01:01:08.249Z,6.40
2018-12-18T01:03:38.156Z,6.40
2018-12-18T01:06:09.798Z,6.50
2018-12-18T01:08:39.315Z,6.50
2018-12-18T01:11:08.970Z,6.40
2018-12-18T01:13:38.293Z,6.50
2018-12-18T01:16:07.544Z,6.50
2018-12-18T01:18:38.058Z,6.40
2018-12-18T01:21:07.778Z,6.40
2018-12-18T01:23:37.988Z,6.30
2018-12-18T01:26:07.437Z,6.30
2018-12-18T01:28:37.048Z,6.30
2018-12-18T01:31:06.795Z,6.30
2018-12-18T01:33:36.318Z,6.30
2018-12-18T01:36:06.399Z,6.40
2018-12-18T01:38:35.744Z,6.30
2018-12-18T01:41:05.021Z,6.30
2018-12-18T01:43:34.288Z,6.30
2018-12-18T01:46:03.811Z,6.30
2018-12-18T01:48:32.848Z,6.20
2018-12-18T01:51:02.137Z,6.30
2018-12-18T01:53:31.294Z,6.30
2018-12-18T01:56:00.924Z,6.30
2018-12-18T01:58:30.327Z,6.30
2018-12-18T02:00:59.863Z,6.40
2018-12-18T02:03:29.660Z,6.40
2018-12-18T02:05:59.493Z,6.40
2018-12-18T02:08:29.436Z,6.30
2018-12-18T02:10:58.915Z,6.30
2018-12-18T02:13:28.062Z,6.30
2018-12-18T02:15:57.691Z,6.30
2018-12-18T02:18:27.623Z,6.30
2018-12-18T02:20:57.448Z,6.20
2018-12-18T02:23:27.053Z,6.20
2018-12-18T02:25:56.440Z,6.30
2018-12-18T02:28:26.375Z,6.20
2018-12-18T02:30:56.213Z,6.20
2018-12-18T02:33:26.207Z,6.10
2018-12-18T02:35:56.329Z,6.10
2018-12-18T02:38:26.247Z,6.20
2018-12-18T02:40:55.852Z,6.20
2018-12-18T02:43:25.652Z,6.20
2018-12-18T02:45:54.969Z,6.10
2018-12-18T02:48:24.561Z,6.20
2018-12-18T02:50:53.978Z,6.20
2018-12-18T02:53:23.382Z,6.20
2018-12-18T02:55:52.646Z,6.30
2018-12-18T02:58:21.986Z,6.30
2018-12-18T03:00:51.332Z,6.30
2018-12-18T03:03:20.841Z,6.20
2018-12-18T03:05:50.399Z,6.20
2018-12-18T03:08:25.316Z,6.30
2018-12-18T03:10:55.043Z,6.20
2018-12-18T03:13:40.455Z,6.20
2018-12-18T03:16:09.557Z,6.10
2018-12-18T03:18:38.960Z,6.00
2018-12-18T03:21:08.499Z,6.00
2018-12-18T03:23:37.935Z,6.00
2018-12-18T03:26:07.441Z,6.00
2018-12-18T03:28:37.169Z,6.10
2018-12-18T03:31:07.289Z,6.00
2018-12-18T03:33:36.801Z,6.00
2018-12-18T03:36:06.880Z,6.00
2018-12-18T03:38:36.799Z,5.90
2018-12-18T03:41:06.572Z,5.90
2018-12-18T03:43:36.328Z,5.90
2018-12-18T03:46:05.611Z,6.00
2018-12-18T03:48:35.523Z,6.00
2018-12-18T03:51:04.798Z,6.00
2018-12-18T03:53:34.334Z,6.00
2018-12-18T03:56:04.399Z,5.90
2018-12-18T03:58:34.195Z,6.00
2018-12-18T04:01:04.275Z,6.00
2018-12-18T04:03:34.011Z,6.00
2018-12-18T04:06:03.203Z,6.10
2018-12-18T04:08:32.603Z,6.10
2018-12-18T04:11:02.523Z,6.00
2018-12-18T04:13:32.310Z,6.00
2018-12-18T04:16:01.693Z,6.00
2018-12-18T04:18:31.239Z,6.00
2018-12-18T04:21:00.797Z,6.10
2018-12-18T04:23:30.194Z,6.10
2018-12-18T04:25:59.957Z,6.10
2018-12-18T04:28:29.749Z,6.10
2018-12-18T04:30:59.261Z,6.00
2018-12-18T04:33:28.640Z,6.10
2018-12-18T04:35:58.168Z,6.10
2018-12-18T04:38:49.152Z,6.00
2018-12-18T04:41:18.680Z,6.10
2018-12-18T04:43:48.036Z,6.10
2018-12-18T04:46:17.443Z,6.20
2018-12-18T04:48:46.900Z,6.00
2018-12-18T04:51:16.606Z,6.10
2018-12-18T04:53:46.368Z,6.10
2018-12-18T04:56:16.289Z,6.20
2018-12-18T04:58:45.815Z,6.00
2018-12-18T05:01:15.055Z,6.00
2018-12-18T05:03:58.011Z,6.00
2018-12-18T05:06:32.860Z,6.00
2018-12-18T05:09:02.954Z,6.00
2018-12-18T05:11:32.022Z,6.10
2018-12-18T05:14:01.476Z,6.10
2018-12-18T05:16:30.867Z,6.00
2018-12-18T05:19:00.241Z,6.00
2018-12-18T05:21:29.798Z,6.00
2018-12-18T05:23:59.114Z,6.00
2018-12-18T05:26:28.414Z,5.90
2018-12-18T05:28:57.448Z,5.80
2018-12-18T05:31:26.469Z,5.80
2018-12-18T05:33:55.869Z,5.70
2018-12-18T05:36:25.977Z,5.70
2018-12-18T05:38:55.584Z,5.70
2018-12-18T05:41:24.990Z,5.60
2018-12-18T05:43:54.407Z,5.50
2018-12-18T05:46:23.787Z,5.40
2018-12-18T05:48:53.013Z,5.30
2018-12-18T05:51:27.672Z,5.20
2018-12-18T05:53:56.971Z,5.10
2018-12-18T05:56:26.111Z,5.10
2018-12-18T05:58:55.353Z,5.00
2018-12-18T06:01:24.640Z,5.00
2018-12-18T06:04:01.399Z,4.90
2018-12-18T06:06:30.556Z,4.80
2018-12-18T06:08:59.593Z,4.90
2018-12-18T06:11:29.113Z,4.80
2018-12-18T06:13:58.522Z,4.80
2018-12-18T06:16:27.789Z,4.70
2018-12-18T06:19:04.288Z,4.70
2018-12-18T06:21:33.590Z,4.60
2018-12-18T06:24:03.023Z,4.50
2018-12-18T06:26:32.189Z,4.50
2018-12-18T06:29:01.265Z,4.60
2018-12-18T06:31:30.114Z,4.50
2018-12-18T06:33:59.040Z,4.60
2018-12-18T06:36:34.443Z,4.70
2018-12-18T06:39:04.025Z,4.70
2018-12-18T06:41:33.040Z,4.50
2018-12-18T06:44:01.934Z,4.20
2018-12-18T06:46:31.024Z,4.10
2018-12-18T06:49:00.119Z,4.00
2018-12-18T06:51:29.109Z,4.00
2018-12-18T06:53:58.025Z,3.80
2018-12-18T06:56:27.063Z,3.80
2018-12-18T06:58:55.983Z,3.90
2018-12-18T07:01:24.969Z,4.00
2018-12-18T07:03:54.192Z,3.90
2018-12-18T07:06:23.063Z,3.80
2018-12-18T07:08:51.783Z,3.50
2018-12-18T07:11:20.725Z,3.40
2018-12-18T07:13:50.350Z,3.30
2018-12-18T07:16:19.442Z,3.20
2018-12-18T07:18:49.163Z,3.30
2018-12-18T07:21:18.903Z,3.40
2018-12-18T07:23:47.955Z,3.30
2018-12-18T07:26:17.224Z,3.10
2018-12-18T07:28:46.361Z,3.00
2018-12-18T07:31:15.558Z,2.90
2018-12-18T07:33:44.701Z,3.00
2018-12-18T07:36:13.985Z,3.00
2018-12-18T07:38:43.023Z,3.00
2018-12-18T07:41:12.079Z,2.90
2018-12-18T07:43:40.984Z,3.00
2018-12-18T07:46:10.077Z,3.00
2018-12-18T07:48:39.106Z,3.10
2018-12-18T07:51:08.225Z,3.30
2018-12-18T07:53:36.966Z,3.30
2018-12-18T07:56:06.060Z,3.30
2018-12-18T07:58:35.258Z,3.30
2018-12-18T08:01:04.260Z,3.40
2018-12-18T08:03:33.240Z,3.50
2018-12-18T08:06:02.334Z,3.40
2018-12-18T08:08:31.444Z,3.50
2018-12-18T08:11:00.214Z,3.50
2018-12-18T08:13:29.395Z,3.50
2018-12-18T08:15:58.300Z,3.60
2018-12-18T08:18:27.354Z,3.60
2018-12-18T08:20:56.394Z,3.70
2018-12-18T08:23:25.137Z,3.80
2018-12-18T08:26:06.452Z,4.00
2018-12-18T08:28:35.460Z,4.00
2018-12-18T08:31:04.377Z,4.00
2018-12-18T08:33:33.321Z,4.00
2018-12-18T08:36:02.396Z,4.10
2018-12-18T08:38:31.376Z,4.20
2018-12-18T08:41:00.426Z,4.10
2018-12-18T08:43:29.459Z,4.20
2018-12-18T08:45:58.483Z,4.30
2018-12-18T08:48:27.658Z,4.50
2018-12-18T08:50:56.775Z,4.50
2018-12-18T08:53:25.555Z,4.50
2018-12-18T08:55:54.448Z,4.50
2018-12-18T08:58:23.150Z,4.60
2018-12-18T09:00:52.134Z,4.70
2018-12-18T09:03:21.419Z,4.70
2018-12-18T09:05:50.521Z,4.70
2018-12-18T09:08:19.374Z,4.70
2018-12-18T09:10:48.475Z,4.90
2018-12-18T09:13:17.454Z,5.00
2018-12-18T09:15:51.704Z,5.10
2018-12-18T09:18:20.510Z,5.20
2018-12-18T09:20:49.585Z,6.00
2018-12-18T09:23:18.535Z,6.70
2018-12-18T09:25:47.813Z,7.30
2018-12-18T09:28:16.855Z,7.70
2018-12-18T09:30:45.655Z,7.50
2018-12-18T09:33:14.746Z,7.40
2018-12-18T09:35:49.562Z,7.10
2018-12-18T09:38:19.974Z,6.90
2018-12-18T09:40:54.049Z,6.80
2018-12-18T09:44:30.898Z,6.70
2018-12-18T09:46:59.778Z,6.70
2018-12-18T09:49:28.852Z,6.60
2018-12-18T09:52:04.419Z,6.60
2018-12-18T09:54:33.410Z,6.60
2018-12-18T09:57:02.572Z,6.60
2018-12-18T09:59:31.193Z,6.70
2018-12-18T10:02:00.169Z,6.70
2018-12-18T10:04:29.095Z,6.90
2018-12-18T10:06:58.009Z,6.90
2018-12-18T10:09:27.052Z,6.90
2018-12-18T10:12:02.217Z,6.80
2018-12-18T10:14:31.249Z,6.90
2018-12-18T10:17:00.170Z,7.00
2018-12-18T10:19:29.331Z,7.00
2018-12-18T10:21:58.488Z,7.00
2018-12-18T10:24:27.349Z,7.10
2018-12-18T10:26:56.548Z,7.10
2018-12-18T10:29:25.851Z,7.10
2018-12-18T10:31:55.039Z,7.20
2018-12-18T10:34:24.134Z,7.20
2018-12-18T10:36:53.021Z,7.20
2018-12-18T10:39:22.005Z,7.30
2018-12-18T10:41:51.344Z,7.40
2018-12-18T10:44:20.502Z,7.50
2018-12-18T10:46:49.853Z,7.70
2018-12-18T10:49:18.883Z,8.10
2018-12-18T10:51:47.684Z,8.40
2018-12-18T10:54:16.847Z,8.90
2018-12-18T10:56:45.884Z,8.90
2018-12-18T10:59:15.822Z,9.00
2018-12-18T11:01:48.524Z,9.00
2018-12-18T11:04:17.378Z,8.90
2018-12-18T11:06:46.363Z,9.10
2018-12-18T11:09:15.283Z,9.20
2018-12-18T11:11:44.563Z,9.10
2018-12-18T11:14:13.963Z,9.10
2018-12-18T11:16:43.003Z,9.20
2018-12-18T11:19:11.921Z,9.10
2018-12-18T11:21:40.847Z,9.20
2018-12-18T11:24:10.003Z,9.20
2018-12-18T11:26:39.284Z,8.90
2018-12-18T11:29:08.321Z,8.80
2018-12-18T11:31:37.361Z,8.80
2018-12-18T11:34:06.521Z,8.80
2018-12-18T11:36:35.561Z,8.70
2018-12-18T11:39:07.003Z,8.70
2018-12-18T11:41:36.041Z,8.70
2018-12-18T11:44:04.894Z,8.80
2018-12-18T11:46:34.002Z,8.70
2018-12-18T11:49:02.992Z,8.80
2018-12-18T11:51:31.897Z,8.90
2018-12-18T11:54:00.998Z,8.90
2018-12-18T11:56:29.735Z,8.70
2018-12-18T11:58:58.599Z,8.70
2018-12-18T12:01:27.639Z,8.70
2018-12-18T12:04:09.944Z,8.70
2018-12-18T12:06:38.989Z,8.60
2018-12-18T12:09:08.319Z,8.70
2018-12-18T12:11:37.392Z,8.70
2018-12-18T12:14:06.626Z,8.70
2018-12-18T12:16:35.558Z,8.60
2018-12-18T12:19:04.609Z,8.50
2018-12-18T12:21:33.599Z,8.60
2018-12-18T12:24:02.597Z,8.50
2018-12-18T12:26:34.117Z,8.40
2018-12-18T12:29:03.277Z,8.40
2018-12-18T12:31:32.137Z,8.60
2018-12-18T12:34:21.493Z,8.80
2018-12-18T12:36:50.676Z,8.80
2018-12-18T12:39:19.596Z,8.70
2018-12-18T12:41:48.452Z,8.80
2018-12-18T12:44:17.491Z,8.70
2018-12-18T12:46:46.477Z,8.70
2018-12-18T12:49:15.641Z,8.80
2018-12-18T12:51:44.535Z,8.60
2018-12-18T12:54:13.546Z,8.70
2018-12-18T12:56:42.810Z,8.70
2018-12-18T12:59:11.870Z,8.60
2018-12-18T13:01:42.276Z,8.70
2018-12-18T13:04:11.313Z,8.90
2018-12-18T13:06:40.226Z,9.00
2018-12-18T13:09:09.687Z,9.10
2018-12-18T13:11:38.738Z,9.20
2018-12-18T13:14:07.713Z,9.30
2018-12-18T13:16:36.601Z,9.10
2018-12-18T13:19:05.794Z,9.00
2018-12-18T13:21:34.648Z,8.80
2018-12-18T13:24:03.631Z,8.70
2018-12-18T13:26:32.549Z,8.70
2018-12-18T13:29:01.470Z,8.60
2018-12-18T13:31:30.344Z,8.70
2018-12-18T13:33:59.318Z,8.60
2018-12-18T13:36:28.235Z,8.60
2018-12-18T13:38:57.164Z,8.50
2018-12-18T13:41:26.127Z,8.50
2018-12-18T13:43:55.230Z,8.50
2018-12-18T13:46:24.202Z,8.40
2018-12-18T13:48:53.791Z,8.40
2018-12-18T13:51:22.896Z,8.50
2018-12-18T13:53:52.216Z,8.40
2018-12-18T13:56:21.388Z,8.40
2018-12-18T13:58:50.436Z,8.20
2018-12-18T14:01:19.676Z,8.30
2018-12-18T14:03:49.136Z,8.20
2018-12-18T14:06:18.588Z,8.20
2018-12-18T14:08:47.907Z,8.20
2018-12-18T14:11:17.309Z,8.20
2018-12-18T14:13:46.950Z,8.00
2018-12-18T14:16:16.373Z,7.90
2018-12-18T14:18:45.401Z,8.00
2018-12-18T14:21:14.486Z,8.00
2018-12-18T14:23:43.619Z,8.00
2018-12-18T14:26:12.873Z,8.00
2018-12-18T14:28:42.294Z,7.80
2018-12-18T14:31:11.625Z,7.90
2018-12-18T14:33:40.703Z,7.80
2018-12-18T14:36:10.114Z,7.80
2018-12-18T14:38:39.415Z,7.60
2018-12-18T14:41:08.963Z,7.60
2018-12-18T14:43:38.367Z,7.60
2018-12-18T14:46:07.488Z,7.60
2018-12-18T14:48:39.263Z,7.50
2018-12-18T14:51:08.431Z,7.40
2018-12-18T14:53:37.826Z,7.40
2018-12-18T14:56:07.345Z,7.50
2018-12-18T14:58:36.266Z,7.30
2018-12-18T15:01:05.664Z,7.30
2018-12-18T15:03:34.727Z,7.20
2018-12-18T15:06:04.134Z,7.20
2018-12-18T15:08:33.565Z,7.20
2018-12-18T15:11:03.213Z,7.20
2018-12-18T15:13:32.548Z,7.20
2018-12-18T15:16:01.941Z,7.00
2018-12-18T15:18:31.114Z,7.00
2018-12-18T15:21:00.332Z,7.00
2018-12-18T15:23:35.652Z,7.00
2018-12-18T15:26:05.526Z,6.90
2018-12-18T15:28:34.884Z,6.90
2018-12-18T15:31:04.228Z,6.80
2018-12-18T15:33:33.518Z,6.70
2018-12-18T15:36:02.728Z,6.60
2018-12-18T15:38:31.760Z,6.60
2018-12-18T15:41:01.101Z,6.60
2018-12-18T15:43:30.380Z,6.50
2018-12-18T15:45:59.792Z,6.40
2018-12-18T15:48:29.248Z,6.40
2018-12-18T15:50:58.702Z,6.40
2018-12-18T15:53:27.859Z,6.40
2018-12-18T15:55:57.149Z,6.30
2018-12-18T15:58:26.116Z,6.20
2018-12-18T16:00:54.919Z,6.20
2018-12-18T16:03:23.811Z,6.20
2018-12-18T16:05:52.941Z,6.10
2018-12-18T16:08:22.464Z,6.10
2018-12-18T16:10:51.867Z,5.90
2018-12-18T16:13:20.908Z,5.90
2018-12-18T16:15:50.423Z,5.80
2018-12-18T16:18:19.808Z,5.90
2018-12-18T16:20:48.904Z,5.90
2018-12-18T16:23:17.913Z,5.90
2018-12-18T16:25:47.267Z,5.90
2018-12-18T16:28:16.342Z,5.80
2018-12-18T16:30:45.737Z,5.80
2018-12-18T16:33:15.272Z,5.80
2018-12-18T16:35:46.264Z,5.80
2018-12-18T16:38:16.290Z,5.80
2018-12-18T16:40:45.500Z,5.90
2018-12-18T16:43:14.550Z,5.80
2018-12-18T16:45:43.734Z,5.80
2018-12-18T16:48:13.273Z,5.70
2018-12-18T16:50:42.496Z,5.70
2018-12-18T16:53:12.261Z,5.80
2018-12-18T16:55:41.905Z,5.70
2018-12-18T16:58:11.067Z,5.60
2018-12-18T17:00:40.029Z,5.60
2018-12-18T17:03:09.636Z,5.60
2018-12-18T17:05:39.252Z,5.50
2018-12-18T17:08:08.653Z,5.40
2018-12-18T17:10:37.841Z,5.50
2018-12-18T17:13:07.015Z,5.50
2018-12-18T17:15:35.953Z,5.50
2018-12-18T17:18:05.542Z,5.50
2018-12-18T17:20:34.976Z,5.40
2018-12-18T17:23:04.744Z,5.40
2018-12-18T17:25:34.457Z,5.30
2018-12-18T17:28:03.988Z,5.40
2018-12-18T17:30:33.536Z,5.40
2018-12-18T17:33:03.064Z,5.30
2018-12-18T17:35:32.775Z,5.30
2018-12-18T17:38:02.230Z,5.30
2018-12-18T17:40:31.994Z,5.40
2018-12-18T17:43:01.549Z,5.40
2018-12-18T17:45:30.887Z,5.40
2018-12-18T17:48:00.635Z,5.30
2018-12-18T17:50:30.387Z,5.30
2018-12-18T17:52:59.411Z,5.30
2018-12-18T17:55:29.791Z,5.30
2018-12-18T17:58:00.322Z,5.20
2018-12-18T18:00:30.377Z,5.30
2018-12-18T18:02:59.918Z,5.30
2018-12-18T18:05:29.554Z,5.20
2018-12-18T18:07:59.264Z,5.20
2018-12-18T18:10:29.052Z,5.10
2018-12-18T18:12:58.983Z,5.10
2018-12-18T18:15:28.701Z,5.20
2018-12-18T18:17:58.821Z,5.10
2018-12-18T18:20:29.460Z,4.90
2018-12-18T18:23:00.115Z,4.90
2018-12-18T18:25:30.418Z,4.80
2018-12-18T18:28:00.379Z,4.80
2018-12-18T18:30:30.493Z,4.80
2018-12-18T18:33:00.485Z,4.80
2018-12-18T18:35:30.608Z,4.70
2018-12-18T18:38:00.498Z,4.70
2018-12-18T18:40:30.146Z,4.60
2018-12-18T18:43:00.437Z,4.70
2018-12-18T18:45:30.491Z,4.50
2018-12-18T18:48:00.662Z,4.40
2018-12-18T18:50:31.009Z,4.50
2018-12-18T18:53:00.768Z,4.50
2018-12-18T18:55:30.295Z,4.60
2018-12-18T18:57:59.983Z,4.50
2018-12-18T19:00:29.527Z,4.50
2018-12-18T19:02:59.214Z,4.60
2018-12-18T19:05:36.851Z,4.60
2018-12-18T19:08:06.737Z,4.50
2018-12-18T19:10:36.246Z,4.60
2018-12-18T19:13:06.062Z,4.60
2018-12-18T19:15:35.534Z,4.70
2018-12-18T19:18:04.866Z,4.70
2018-12-18T19:20:34.095Z,4.70
2018-12-18T19:23:03.365Z,4.70
2018-12-18T19:25:33.146Z,4.70
2018-12-18T19:28:02.784Z,4.70
2018-12-18T19:30:33.259Z,4.70
2018-12-18T19:33:02.339Z,4.70
2018-12-18T19:35:32.050Z,4.70
2018-12-18T19:38:03.361Z,4.60
2018-12-18T19:40:32.701Z,4.70
2018-12-18T19:43:02.184Z,4.60
2018-12-18T19:45:31.850Z,4.80
2018-12-18T19:48:01.094Z,4.70
2018-12-18T19:50:30.334Z,4.70
2018-12-18T19:52:59.685Z,4.80
2018-12-18T19:55:28.714Z,4.80
2018-12-18T19:57:58.105Z,4.90
2018-12-18T20:00:27.962Z,4.90
2018-12-18T20:02:57.538Z,4.90
2018-12-18T20:05:27.123Z,5.00
2018-12-18T20:07:56.534Z,5.10
2018-12-18T20:10:25.808Z,5.20
2018-12-18T20:12:55.153Z,5.20
2018-12-18T20:15:24.639Z,5.30
2018-12-18T20:17:54.034Z,5.40
2018-12-18T20:20:23.867Z,5.40
2018-12-18T20:22:53.166Z,5.50
2018-12-18T20:25:22.804Z,5.60
2018-12-18T20:27:52.087Z,5.60
2018-12-18T20:30:21.721Z,5.60
2018-12-18T20:32:51.611Z,5.60
2018-12-18T20:35:21.014Z,5.70
2018-12-18T20:37:50.644Z,5.70
2018-12-18T20:40:19.924Z,5.70
2018-12-18T20:42:49.340Z,5.70
2018-12-18T20:45:18.748Z,5.70
2018-12-18T20:47:47.997Z,5.70
2018-12-18T20:50:17.051Z,5.70
2018-12-18T20:52:47.047Z,5.80
2018-12-18T20:55:16.306Z,5.80
2018-12-18T20:57:45.802Z,5.80
2018-12-18T21:00:15.739Z,5.80
2018-12-18T21:02:45.357Z,5.80
2018-12-18T21:05:14.755Z,5.80
2018-12-18T21:07:44.420Z,5.80
2018-12-18T21:10:13.556Z,5.80
2018-12-18T21:12:42.957Z,5.80
2018-12-18T21:15:12.114Z,5.80
2018-12-18T21:17:41.352Z,5.80
2018-12-18T21:20:11.102Z,5.70
2018-12-18T21:22:40.709Z,5.70
2018-12-18T21:25:10.317Z,5.70
2018-12-18T21:27:40.130Z,5.70
2018-12-18T21:30:09.834Z,5.70
2018-12-18T21:32:39.245Z,5.60
2018-12-18T21:35:08.545Z,5.60
2018-12-18T21:37:38.287Z,5.70
2018-12-18T21:40:08.165Z,5.70
2018-12-18T21:42:38.286Z,5.70
2018-12-18T21:45:08.065Z,5.80
2018-12-18T21:47:37.600Z,5.80
2018-12-18T21:50:07.867Z,5.80
2018-12-18T21:52:37.443Z,5.90
2018-12-18T21:55:07.252Z,5.90
2018-12-18T21:57:36.610Z,5.90
2018-12-18T22:00:07.323Z,5.90
2018-12-18T22:02:36.166Z,5.90
2018-12-18T22:05:05.753Z,5.90
2018-12-18T22:07:35.180Z,6.00
2018-12-18T22:10:05.675Z,6.00
2018-12-18T22:12:34.797Z,6.00
2018-12-18T22:15:04.432Z,6.10
2018-12-18T22:17:33.835Z,6.10
2018-12-18T22:20:02.934Z,6.10
2018-12-18T22:22:32.149Z,6.10
2018-12-18T22:25:01.554Z,6.20
2018-12-18T22:27:31.210Z,6.20
2018-12-18T22:30:00.508Z,6.20
2018-12-18T22:32:29.926Z,6.20
2018-12-18T22:34:59.292Z,6.20
2018-12-18T22:37:28.554Z,6.20
2018-12-18T22:39:57.693Z,6.30
2018-12-18T22:42:26.989Z,6.20
2018-12-18T22:44:56.587Z,6.20
2018-12-18T22:47:25.734Z,6.20
2018-12-18T22:49:54.957Z,6.30
2018-12-18T22:52:24.872Z,6.20
2018-12-18T22:54:54.481Z,6.30
2018-12-18T22:57:23.885Z,6.30
2018-12-18T23:17:06.592Z,6.30
2018-12-18T23:19:35.758Z,6.30
2018-12-18T23:22:20.885Z,6.30
2018-12-18T23:24:50.291Z,6.30
2018-12-18T23:27:19.776Z,6.40
2018-12-18T23:29:49.332Z,6.50
2018-12-18T23:32:25.774Z,6.40
2018-12-18T23:37:45.710Z,6.40
2018-12-18T23:40:14.988Z,6.40
2018-12-18T23:42:44.202Z,6.40
2018-12-18T23:45:13.247Z,6.40
2018-12-18T23:47:42.736Z,6.40
